createdAt,value
2018-11-14T00:00:34.445Z,10.00
2018-11-14T00:03:04.402Z,10.00
2018-11-14T00:05:33.608Z,10.00
2018-11-14T00:08:02.850Z,10.00
2018-11-14T00:10:32.147Z,10.00
2018-11-14T00:13:01.431Z,10.00
2018-11-14T00:15:30.603Z,9.90
2018-11-14T00:18:00.459Z,10.00
2018-11-14T00:20:29.752Z,10.00
2018-11-14T00:22:58.908Z,9.90
2018-11-14T00:25:28.059Z,9.90
2018-11-14T00:27:57.307Z,9.90
2018-11-14T00:30:26.859Z,9.90
2018-11-14T00:32:56.109Z,9.90
2018-11-14T00:35:25.249Z,9.90
2018-11-14T00:37:54.437Z,9.90
2018-11-14T00:40:23.644Z,9.90
2018-11-14T00:42:52.885Z,9.90
2018-11-14T00:45:22.805Z,9.90
2018-11-14T00:47:52.234Z,9.90
2018-11-14T00:50:21.720Z,9.80
2018-11-14T00:52:51.174Z,9.80
2018-11-14T00:55:21.544Z,9.80
2018-11-14T00:57:51.789Z,9.90
2018-11-14T01:00:24.123Z,9.90
2018-11-14T01:02:53.828Z,9.80
2018-11-14T01:05:23.092Z,9.90
2018-11-14T01:07:52.279Z,9.90
2018-11-14T01:10:22.379Z,9.90
2018-11-14T01:12:51.960Z,9.90
2018-11-14T01:15:22.427Z,9.90
2018-11-14T01:17:51.597Z,9.90
2018-11-14T01:20:21.793Z,9.90
2018-11-14T01:22:51.080Z,9.90
2018-11-14T01:25:20.507Z,9.90
2018-11-14T01:27:49.761Z,9.90
2018-11-14T01:30:20.262Z,9.90
2018-11-14T01:32:49.738Z,9.90
2018-11-14T01:35:19.243Z,9.90
2018-11-14T01:44:36.581Z,9.90
2018-11-14T01:47:05.909Z,9.90
2018-11-14T01:49:35.061Z,9.90
2018-11-14T01:52:04.306Z,9.90
2018-11-14T01:54:33.733Z,9.90
2018-11-14T01:57:02.939Z,9.90
2018-11-14T01:59:32.103Z,10.00
2018-11-14T02:02:01.271Z,10.00
2018-11-14T02:04:30.425Z,10.00
2018-11-14T02:06:59.636Z,10.00
2018-11-14T02:09:28.817Z,10.00
2018-11-14T02:11:58.055Z,10.00
2018-11-14T02:14:27.251Z,10.00
2018-11-14T02:16:56.403Z,10.00
2018-11-14T02:19:25.555Z,10.00
2018-11-14T02:21:54.735Z,9.90
2018-11-14T02:24:24.017Z,9.90
2018-11-14T02:26:53.207Z,9.90
2018-11-14T02:29:22.675Z,9.90
2018-11-14T02:31:51.829Z,9.90
2018-11-14T02:34:21.053Z,9.90
2018-11-14T02:36:50.501Z,9.90
2018-11-14T02:39:19.684Z,9.80
2018-11-14T02:41:48.973Z,9.80
2018-11-14T02:44:18.191Z,9.80
2018-11-14T02:46:47.391Z,9.80
2018-11-14T02:49:16.553Z,9.80
2018-11-14T02:51:45.749Z,9.80
2018-11-14T02:54:14.872Z,9.80
2018-11-14T02:56:44.112Z,9.80
2018-11-14T02:59:13.241Z,9.80
2018-11-14T03:01:42.396Z,9.80
2018-11-14T03:04:11.561Z,9.70
2018-11-14T03:06:40.741Z,9.70
2018-11-14T03:09:09.923Z,9.70
2018-11-14T03:11:39.065Z,9.70
2018-11-14T03:14:08.241Z,9.70
2018-11-14T03:16:37.435Z,9.70
2018-11-14T03:19:06.627Z,9.60
2018-11-14T03:21:35.783Z,9.60
2018-11-14T03:24:05.539Z,9.60
2018-11-14T03:26:34.809Z,9.60
2018-11-14T03:29:03.997Z,9.60
2018-11-14T03:31:33.143Z,9.60
2018-11-14T03:34:02.287Z,9.50
2018-11-14T03:36:31.445Z,9.50
2018-11-14T03:39:00.665Z,9.50
2018-11-14T03:41:29.824Z,9.50
2018-11-14T03:43:58.971Z,9.50
2018-11-14T03:46:28.151Z,9.50
2018-11-14T03:48:57.426Z,9.40
2018-11-14T03:51:26.593Z,9.40
2018-11-14T03:53:55.736Z,9.40
2018-11-14T03:56:25.603Z,9.40
2018-11-14T03:58:54.751Z,9.40
2018-11-14T04:01:23.920Z,9.30
2018-11-14T04:03:53.101Z,9.30
2018-11-14T04:06:22.293Z,9.30
2018-11-14T04:08:51.446Z,9.30
2018-11-14T04:11:20.699Z,9.30
2018-11-14T04:13:49.823Z,9.30
2018-11-14T04:16:18.985Z,9.30
2018-11-14T04:18:49.197Z,9.30
2018-11-14T04:21:18.352Z,9.30
2018-11-14T04:23:51.130Z,9.20
2018-11-14T04:26:20.321Z,9.20
2018-11-14T04:28:49.606Z,9.20
2018-11-14T04:31:18.754Z,9.20
2018-11-14T04:33:47.858Z,9.20
2018-11-14T04:36:17.028Z,9.20
2018-11-14T04:38:46.205Z,9.20
2018-11-14T04:41:15.654Z,9.10
2018-11-14T04:43:44.791Z,9.10
2018-11-14T04:46:13.959Z,9.10
2018-11-14T04:48:43.087Z,9.10
2018-11-14T04:51:12.236Z,9.10
2018-11-14T04:53:41.361Z,9.10
2018-11-14T04:56:10.521Z,9.10
2018-11-14T04:58:39.758Z,9.10
2018-11-14T05:01:08.907Z,9.00
2018-11-14T05:03:38.071Z,9.00
2018-11-14T05:06:07.259Z,9.00
2018-11-14T05:08:36.434Z,9.00
2018-11-14T05:11:05.869Z,9.00
2018-11-14T05:13:35.031Z,9.00
2018-11-14T05:16:04.203Z,9.00
2018-11-14T05:18:34.056Z,9.00
2018-11-14T05:21:03.271Z,9.00
2018-11-14T05:23:32.537Z,8.90
2018-11-14T05:26:01.679Z,8.90
2018-11-14T05:28:30.833Z,9.00
2018-11-14T05:31:00.073Z,8.90
2018-11-14T05:33:29.397Z,8.90
2018-11-14T05:35:58.571Z,8.90
2018-11-14T05:38:27.711Z,9.00
2018-11-14T05:40:56.921Z,9.00
2018-11-14T05:43:26.046Z,9.00
2018-11-14T05:45:55.261Z,9.00
2018-11-14T05:48:24.554Z,9.00
2018-11-14T05:50:53.691Z,9.00
2018-11-14T05:53:23.255Z,9.00
2018-11-14T05:55:52.453Z,9.00
2018-11-14T05:58:21.565Z,9.00
2018-11-14T06:00:50.724Z,9.00
2018-11-14T06:03:19.849Z,9.00
2018-11-14T06:05:49.037Z,9.00
2018-11-14T06:08:18.197Z,9.00
2018-11-14T06:10:47.282Z,9.10
2018-11-14T06:13:16.460Z,9.10
2018-11-14T06:15:45.744Z,9.00
2018-11-14T06:18:14.875Z,9.00
2018-11-14T06:20:44.404Z,9.10
2018-11-14T06:23:13.647Z,9.10
2018-11-14T06:25:42.821Z,9.10
2018-11-14T06:28:12.145Z,9.10
2018-11-14T06:30:42.399Z,9.10
2018-11-14T06:33:12.235Z,9.10
2018-11-14T06:35:42.391Z,9.10
2018-11-14T06:38:11.535Z,9.10
2018-11-14T06:40:40.683Z,9.20
2018-11-14T06:43:09.857Z,9.20
2018-11-14T06:45:39.047Z,9.20
2018-11-14T06:48:08.225Z,9.20
2018-11-14T06:50:37.422Z,9.20
2018-11-14T06:53:07.301Z,9.20
2018-11-14T06:55:36.441Z,9.20
2018-11-14T06:58:05.575Z,9.20
2018-11-14T07:00:35.959Z,9.20
2018-11-14T07:03:06.620Z,9.30
2018-11-14T07:05:35.915Z,9.30
2018-11-14T07:08:05.401Z,9.30
2018-11-14T07:10:35.997Z,9.30
2018-11-14T07:13:06.959Z,9.30
2018-11-14T07:15:36.893Z,9.30
2018-11-14T07:18:06.873Z,9.30
2018-11-14T07:20:37.493Z,9.40
2018-11-14T07:23:06.873Z,9.40
2018-11-14T07:25:37.357Z,9.50
2018-11-14T07:28:06.653Z,9.50
2018-11-14T07:30:36.317Z,9.50
2018-11-14T07:33:08.098Z,9.50
2018-11-14T07:35:37.737Z,9.50
2018-11-14T07:38:42.753Z,9.50
2018-11-14T07:41:14.337Z,9.50
2018-11-14T07:43:44.053Z,9.50
2018-11-14T07:46:13.820Z,9.50
2018-11-14T07:48:43.537Z,9.50
2018-11-14T07:51:12.741Z,9.50
2018-11-14T07:53:41.948Z,9.50
2018-11-14T07:56:11.141Z,9.50
2018-11-14T07:58:40.319Z,9.60
2018-11-14T08:01:09.504Z,9.60
2018-11-14T08:03:38.742Z,9.60
2018-11-14T08:06:07.971Z,9.60
2018-11-14T08:15:23.726Z,9.60
2018-11-14T08:17:52.887Z,9.70
2018-11-14T08:20:22.050Z,9.70
2018-11-14T08:22:51.246Z,9.80
2018-11-14T08:25:20.371Z,9.80
2018-11-14T08:27:49.594Z,9.80
2018-11-14T08:30:19.482Z,9.80
2018-11-14T08:32:48.718Z,9.80
2018-11-14T08:35:17.930Z,9.90
2018-11-14T08:37:47.202Z,9.90
2018-11-14T08:40:16.392Z,9.90
2018-11-14T08:42:45.882Z,9.80
2018-11-14T08:45:15.038Z,9.80
2018-11-14T08:47:45.134Z,9.80
2018-11-14T08:50:15.648Z,9.80
2018-11-14T08:52:45.374Z,9.90
2018-11-14T08:55:15.322Z,9.90
2018-11-14T08:57:45.645Z,10.00
2018-11-14T09:00:17.814Z,10.00
2018-11-14T09:02:47.422Z,10.00
2018-11-14T09:05:16.674Z,9.90
2018-11-14T09:07:46.113Z,9.90
2018-11-14T09:10:16.579Z,10.00
2018-11-14T09:12:46.167Z,10.00
2018-11-14T09:15:16.670Z,9.90
2018-11-14T09:17:45.878Z,10.00
2018-11-14T09:20:16.514Z,10.00
2018-11-14T09:22:45.802Z,10.00
2018-11-14T09:25:19.218Z,10.00
2018-11-14T09:27:48.421Z,10.10
2018-11-14T09:30:21.618Z,10.10
2018-11-14T09:32:50.842Z,10.10
2018-11-14T09:35:21.002Z,10.20
2018-11-14T09:37:51.599Z,10.20
2018-11-14T09:40:22.051Z,10.20
2018-11-14T09:42:51.549Z,10.30
2018-11-14T09:45:22.114Z,10.20
2018-11-14T09:47:51.398Z,10.30
2018-11-14T09:50:29.240Z,10.30
2018-11-14T09:53:00.700Z,10.30
2018-11-14T09:55:29.873Z,10.30
2018-11-14T09:57:59.089Z,10.30
2018-11-14T10:00:29.534Z,10.30
2018-11-14T10:03:02.720Z,10.40
2018-11-14T10:05:31.886Z,10.40
2018-11-14T10:08:01.030Z,10.40
2018-11-14T10:10:30.457Z,10.50
2018-11-14T10:12:59.629Z,10.40
2018-11-14T10:15:28.854Z,10.40
2018-11-14T10:17:58.023Z,10.50
2018-11-14T10:20:27.171Z,10.40
2018-11-14T10:22:56.337Z,10.50
2018-11-14T10:25:25.535Z,10.50
2018-11-14T10:27:54.789Z,10.60
2018-11-14T10:30:26.365Z,10.60
2018-11-14T10:32:55.901Z,10.70
2018-11-14T10:35:25.123Z,10.80
2018-11-14T10:37:55.529Z,10.80
2018-11-14T10:40:26.591Z,10.80
2018-11-14T10:42:55.857Z,10.90
2018-11-14T10:45:25.877Z,10.90
2018-11-14T10:47:55.043Z,11.00
2018-11-14T10:50:26.828Z,11.00
2018-11-14T10:52:56.041Z,11.00
2018-11-14T10:55:25.319Z,11.00
2018-11-14T10:57:54.861Z,11.00
2018-11-14T11:00:30.378Z,11.00
2018-11-14T11:03:05.971Z,11.00
2018-11-14T11:05:44.399Z,11.00
2018-11-14T11:08:19.969Z,11.00
2018-11-14T11:10:54.461Z,11.00
2018-11-14T11:13:28.937Z,10.90
2018-11-14T11:16:03.343Z,10.90
2018-11-14T11:18:33.929Z,10.80
2018-11-14T11:21:03.210Z,10.80
2018-11-14T11:23:32.469Z,10.80
2018-11-14T11:26:01.683Z,10.90
2018-11-14T11:28:30.853Z,10.90
2018-11-14T11:31:00.167Z,10.90
2018-11-14T11:33:29.399Z,10.90
2018-11-14T11:35:58.589Z,10.90
2018-11-14T11:38:27.995Z,10.90
2018-11-14T11:40:57.176Z,10.90
2018-11-14T11:43:26.386Z,10.90
2018-11-14T11:45:56.868Z,10.90
2018-11-14T11:49:55.493Z,10.80
2018-11-14T11:52:24.654Z,10.80
2018-11-14T11:54:53.843Z,10.80
2018-11-14T11:57:23.075Z,10.80
2018-11-14T11:59:52.326Z,10.80
2018-11-14T12:02:21.613Z,10.80
2018-11-14T12:04:51.120Z,10.70
2018-11-14T12:07:20.301Z,10.70
2018-11-14T12:09:49.477Z,10.70
2018-11-14T12:12:19.929Z,10.70
2018-11-14T12:14:49.081Z,10.60
2018-11-14T12:17:18.240Z,10.60
2018-11-14T12:19:47.447Z,10.60
2018-11-14T12:22:16.597Z,10.60
2018-11-14T12:24:45.739Z,10.60
2018-11-14T12:27:15.008Z,10.50
2018-11-14T12:29:44.209Z,10.50
2018-11-14T12:32:14.405Z,10.50
2018-11-14T12:34:43.698Z,10.50
2018-11-14T12:37:12.807Z,10.50
2018-11-14T12:39:42.101Z,10.50
2018-11-14T12:42:11.256Z,10.50
2018-11-14T12:44:40.465Z,10.50
2018-11-14T12:47:09.640Z,10.50
2018-11-14T12:49:38.809Z,10.50
2018-11-14T12:52:07.992Z,10.50
2018-11-14T12:54:37.182Z,10.50
2018-11-14T12:57:06.471Z,10.50
2018-11-14T12:59:35.937Z,10.50
2018-11-14T13:02:05.851Z,10.50
2018-11-14T13:04:35.059Z,10.40
2018-11-14T13:07:05.374Z,10.40
2018-11-14T13:09:35.150Z,10.30
2018-11-14T13:12:04.485Z,10.30
2018-11-14T13:14:33.671Z,10.20
2018-11-14T13:17:02.841Z,10.20
2018-11-14T13:19:32.038Z,10.20
2018-11-14T13:22:01.194Z,10.20
2018-11-14T13:24:30.383Z,10.10
2018-11-14T13:26:59.693Z,10.10
2018-11-14T13:29:29.069Z,10.10
2018-11-14T13:31:58.261Z,10.10
2018-11-14T13:34:28.556Z,10.10
2018-11-14T13:36:57.751Z,10.10
2018-11-14T13:39:26.977Z,10.00
2018-11-14T13:41:56.420Z,10.00
2018-11-14T13:44:25.601Z,10.10
2018-11-14T13:46:54.801Z,10.00
2018-11-14T13:49:24.188Z,10.00
2018-11-14T13:51:53.463Z,10.00
2018-11-14T13:54:22.754Z,9.90
2018-11-14T13:56:51.939Z,9.90
2018-11-14T13:59:21.249Z,10.00
2018-11-14T14:01:50.520Z,10.00
2018-11-14T14:04:19.701Z,9.90
2018-11-14T14:06:48.836Z,9.90
2018-11-14T14:09:18.175Z,9.90
2018-11-14T14:13:16.770Z,9.90
2018-11-14T14:15:46.856Z,9.90
2018-11-14T14:18:16.040Z,9.90
2018-11-14T14:20:45.191Z,9.90
2018-11-14T14:23:14.365Z,9.90
2018-11-14T14:25:43.560Z,9.90
2018-11-14T14:28:12.705Z,9.90
2018-11-14T14:30:42.074Z,9.90
2018-11-14T14:33:11.230Z,9.90
2018-11-14T14:35:40.455Z,9.90
2018-11-14T14:38:09.677Z,9.90
2018-11-14T14:40:39.107Z,9.90
2018-11-14T14:43:08.369Z,9.90
2018-11-14T14:45:37.540Z,10.00
2018-11-14T14:48:06.841Z,9.90
2018-11-14T14:50:36.022Z,9.90
2018-11-14T14:53:05.466Z,9.90
2018-11-14T14:55:34.636Z,10.00
2018-11-14T14:58:03.960Z,10.00
2018-11-14T15:00:33.938Z,10.00
2018-11-14T15:03:03.138Z,10.00
2018-11-14T15:05:32.486Z,10.00
2018-11-14T15:08:01.624Z,10.00
2018-11-14T15:10:30.805Z,10.00
2018-11-14T15:13:00.034Z,10.00
2018-11-14T15:15:29.285Z,10.00
2018-11-14T15:17:58.473Z,10.00
2018-11-14T15:20:27.605Z,10.00
2018-11-14T15:22:56.772Z,10.00
2018-11-14T15:25:25.973Z,10.00
2018-11-14T15:27:55.163Z,10.00
2018-11-14T15:30:25.720Z,10.00
2018-11-14T15:32:55.104Z,10.00
2018-11-14T15:35:24.396Z,10.00
2018-11-14T15:37:53.593Z,10.00
2018-11-14T15:40:24.225Z,10.00
2018-11-14T15:42:53.501Z,10.00
2018-11-14T15:45:26.103Z,10.00
2018-11-14T15:47:55.310Z,10.00
2018-11-14T15:50:25.838Z,10.00
2018-11-14T15:52:55.985Z,10.00
2018-11-14T15:55:25.342Z,10.00
2018-11-14T15:57:54.828Z,10.00
2018-11-14T16:00:25.451Z,10.00
2018-11-14T16:02:54.643Z,10.00
2018-11-14T16:05:26.833Z,10.00
2018-11-14T16:08:04.251Z,10.00
2018-11-14T16:10:34.365Z,10.00
2018-11-14T16:13:03.551Z,10.00
2018-11-14T16:15:34.486Z,10.00
2018-11-14T16:18:04.625Z,10.00
2018-11-14T16:20:33.831Z,9.90
2018-11-14T16:23:02.958Z,9.90
2018-11-14T16:25:32.133Z,9.90
2018-11-14T16:28:02.028Z,9.90
2018-11-14T16:30:33.172Z,9.90
2018-11-14T16:33:04.654Z,9.90
2018-11-14T16:35:33.821Z,10.00
2018-11-14T16:38:04.040Z,10.00
2018-11-14T16:40:34.205Z,10.00
2018-11-14T16:43:05.105Z,10.00
2018-11-14T16:45:34.411Z,10.00
2018-11-14T16:48:04.084Z,10.00
2018-11-14T16:50:33.275Z,10.00
2018-11-14T16:53:02.377Z,10.00
2018-11-14T16:55:31.579Z,10.00
2018-11-14T16:58:00.733Z,10.00
2018-11-14T17:00:31.199Z,10.00
2018-11-14T17:03:00.742Z,9.90
2018-11-14T17:05:31.162Z,10.00
2018-11-14T17:08:00.379Z,10.00
2018-11-14T17:10:29.561Z,9.90
2018-11-14T17:12:59.873Z,10.00
2018-11-14T17:15:29.106Z,9.90
2018-11-14T17:17:58.289Z,9.90
2018-11-14T17:20:27.521Z,9.90
2018-11-14T17:22:56.984Z,9.90
2018-11-14T17:25:26.158Z,9.90
2018-11-14T17:27:55.335Z,9.90
2018-11-14T17:30:26.544Z,9.90
2018-11-14T17:32:55.905Z,9.90
2018-11-14T17:35:26.020Z,10.00
2018-11-14T17:37:55.177Z,10.00
2018-11-14T17:40:25.688Z,9.90
2018-11-14T17:42:55.213Z,10.00
2018-11-14T17:45:29.730Z,10.00
2018-11-14T17:47:59.347Z,10.00
2018-11-14T17:50:31.479Z,9.90
2018-11-14T17:53:01.386Z,9.90
2018-11-14T17:55:30.933Z,9.90
2018-11-14T17:58:00.560Z,9.90
2018-11-14T18:00:30.831Z,9.90
2018-11-14T18:03:00.083Z,9.90
2018-11-14T18:05:30.658Z,9.90
2018-11-14T18:07:59.939Z,9.90
2018-11-14T18:10:30.179Z,9.90
2018-11-14T18:13:00.517Z,10.00
2018-11-14T18:15:29.843Z,9.90
2018-11-14T18:17:59.414Z,9.90
2018-11-14T18:20:30.148Z,9.90
2018-11-14T18:22:59.902Z,9.90
2018-11-14T18:25:29.124Z,10.00
2018-11-14T18:27:58.355Z,9.90
2018-11-14T18:30:30.054Z,9.90
2018-11-14T18:33:00.139Z,9.90
2018-11-14T18:35:29.521Z,9.90
2018-11-14T18:37:59.357Z,9.90
2018-11-14T18:40:32.305Z,9.90
2018-11-14T18:43:01.466Z,9.90
2018-11-14T18:45:32.063Z,9.90
2018-11-14T18:48:02.138Z,9.80
2018-11-14T18:50:31.370Z,9.80
2018-11-14T18:53:00.531Z,9.70
2018-11-14T18:55:31.295Z,9.70
2018-11-14T18:58:01.442Z,9.70
2018-11-14T19:00:32.024Z,9.60
2018-11-14T19:03:01.282Z,9.60
2018-11-14T19:05:30.556Z,9.60
2018-11-14T19:07:59.778Z,9.60
2018-11-14T19:10:31.605Z,9.60
2018-11-14T19:13:00.798Z,9.60
2018-11-14T19:15:31.477Z,9.60
2018-11-14T19:18:00.642Z,9.50
2018-11-14T19:20:31.184Z,9.50
2018-11-14T19:23:01.170Z,9.50
2018-11-14T19:25:35.808Z,9.50
2018-11-14T19:28:05.244Z,9.50
2018-11-14T19:30:35.847Z,9.50
2018-11-14T19:33:05.084Z,9.50
2018-11-14T19:35:34.256Z,9.40
2018-11-14T19:38:03.508Z,9.50
2018-11-14T19:40:34.890Z,9.50
2018-11-14T19:43:09.146Z,9.50
2018-11-14T19:45:39.278Z,9.50
2018-11-14T19:48:08.890Z,9.50
2018-11-14T19:50:38.113Z,9.50
2018-11-14T19:53:07.358Z,9.50
2018-11-14T19:55:37.039Z,9.50
2018-11-14T19:58:06.957Z,9.50
2018-11-14T20:00:38.118Z,9.50
2018-11-14T20:03:07.711Z,9.50
2018-11-14T20:05:36.914Z,9.50
2018-11-14T20:08:06.321Z,9.50
2018-11-14T20:10:35.612Z,9.50
2018-11-14T20:13:04.725Z,9.50
2018-11-14T20:15:35.348Z,9.40
2018-11-14T20:18:04.994Z,9.40
2018-11-14T20:20:35.817Z,9.50
2018-11-14T20:23:05.270Z,9.40
2018-11-14T20:25:34.661Z,9.40
2018-11-14T20:28:03.856Z,9.40
2018-11-14T20:30:34.691Z,9.40
2018-11-14T20:33:06.427Z,9.40
2018-11-14T20:35:35.586Z,9.40
2018-11-14T20:38:05.114Z,9.40
2018-11-14T20:40:36.699Z,9.40
2018-11-14T20:43:06.817Z,9.30
2018-11-14T20:45:36.610Z,9.30
2018-11-14T20:48:05.836Z,9.40
2018-11-14T20:50:35.423Z,9.30
2018-11-14T20:53:05.287Z,9.30
2018-11-14T20:55:35.817Z,9.40
2018-11-14T20:58:05.975Z,9.30
2018-11-14T21:00:36.495Z,9.30
2018-11-14T21:03:06.524Z,9.30
2018-11-14T21:05:35.836Z,9.40
2018-11-14T21:08:05.406Z,9.40
2018-11-14T21:10:35.352Z,9.30
2018-11-14T21:13:05.045Z,9.30
2018-11-14T21:15:35.741Z,9.40
2018-11-14T21:18:05.166Z,9.30
2018-11-14T21:20:34.374Z,9.30
2018-11-14T21:23:03.684Z,9.40
2018-11-14T21:25:32.824Z,9.40
2018-11-14T21:28:02.096Z,9.30
2018-11-14T21:30:31.542Z,9.30
2018-11-14T21:33:00.743Z,9.40
2018-11-14T21:35:31.789Z,9.40
2018-11-14T21:38:02.336Z,9.40
2018-11-14T21:40:31.922Z,9.40
2018-11-14T21:43:01.148Z,9.40
2018-11-14T21:45:30.733Z,9.40
2018-11-14T21:48:05.349Z,9.40
2018-11-14T21:50:34.686Z,9.40
2018-11-14T21:53:03.935Z,9.40
2018-11-14T21:55:33.073Z,9.40
2018-11-14T21:58:02.202Z,9.40
2018-11-14T22:00:31.466Z,9.40
2018-11-14T22:03:00.829Z,9.40
2018-11-14T22:05:30.046Z,9.40
2018-11-14T22:07:59.267Z,9.50
2018-11-14T22:10:28.449Z,9.50
2018-11-14T22:12:57.672Z,9.40
2018-11-14T22:15:27.886Z,9.40
2018-11-14T22:17:57.099Z,9.40
2018-11-14T22:20:27.063Z,9.40
2018-11-14T22:22:56.272Z,9.40
2018-11-14T22:25:26.519Z,9.50
2018-11-14T22:27:55.791Z,9.50
2018-11-14T22:30:28.717Z,9.50
2018-11-14T22:32:57.920Z,9.50
2018-11-14T22:35:28.321Z,9.40
2018-11-14T22:37:57.446Z,9.50
2018-11-14T22:40:27.945Z,9.50
2018-11-14T22:42:57.185Z,9.50
2018-11-14T22:45:27.753Z,9.40
2018-11-14T22:47:56.957Z,9.40
2018-11-14T22:50:26.550Z,9.40
2018-11-14T22:52:55.810Z,9.40
2018-11-14T22:55:25.670Z,9.40
2018-11-14T22:57:55.109Z,9.40
2018-11-14T23:00:29.238Z,9.40
2018-11-14T23:02:59.489Z,9.40
2018-11-14T23:05:28.929Z,9.40
2018-11-14T23:07:58.860Z,9.40
2018-11-14T23:10:28.457Z,9.40
2018-11-14T23:12:57.679Z,9.40
2018-11-14T23:15:26.961Z,9.40
2018-11-14T23:17:56.081Z,9.40
2018-11-14T23:20:25.283Z,9.40
2018-11-14T23:22:54.968Z,9.40
2018-11-14T23:25:24.550Z,9.40
2018-11-14T23:27:54.785Z,9.40
2018-11-14T23:30:25.111Z,9.50
2018-11-14T23:32:55.198Z,9.40
2018-11-14T23:35:25.555Z,9.40
2018-11-14T23:37:56.093Z,9.40
2018-11-14T23:40:25.389Z,9.40
2018-11-14T23:42:54.643Z,9.40
2018-11-14T23:45:24.625Z,9.40
2018-11-14T23:47:53.853Z,9.40
2018-11-14T23:50:25.251Z,9.40
2018-11-14T23:52:55.345Z,9.40
2018-11-14T23:55:25.417Z,9.40
2018-11-14T23:57:54.603Z,9.40
